createdAt,value
2023-11-20T00:00:14.141Z,4.80
2023-11-20T00:02:45.108Z,5.80
2023-11-20T00:05:13.079Z,7.90
2023-11-20T00:07:41.934Z,6.75
2023-11-20T00:10:09.836Z,11.50
2023-11-20T00:12:37.482Z,8.60
2023-11-20T00:15:05.832Z,4.90
2023-11-20T00:17:33.482Z,9.10
2023-11-20T00:20:01.225Z,8.70
2023-11-20T00:22:28.815Z,8.40
2023-11-20T00:24:57.353Z,7.17
2023-11-20T00:27:25.014Z,12.88
2023-11-20T00:29:52.600Z,8.90
2023-11-20T00:32:20.174Z,11.60
2023-11-20T00:34:47.765Z,10.03
2023-11-20T00:37:19.492Z,8.43
2023-11-20T00:39:47.330Z,7.73
2023-11-20T00:42:14.931Z,10.10
2023-11-20T00:44:42.528Z,10.60
2023-11-20T00:47:10.305Z,6.30
2023-11-20T00:49:39.109Z,9.37
2023-11-20T00:52:06.851Z,12.23
2023-11-20T00:54:34.452Z,13.30
2023-11-20T00:57:02.021Z,7.87
2023-11-20T00:59:29.614Z,14.38
2023-11-20T01:01:57.221Z,12.73
2023-11-20T01:04:24.858Z,10.13
2023-11-20T01:06:52.752Z,12.07
2023-11-20T01:09:20.593Z,8.05
2023-11-20T01:11:48.180Z,10.80
2023-11-20T01:14:15.962Z,12.23
2023-11-20T01:16:43.566Z,9.87
2023-11-20T01:19:11.197Z,8.57
2023-11-20T01:21:40.974Z,13.23
2023-11-20T01:24:09.000Z,10.60
2023-11-20T01:26:39.708Z,8.52
2023-11-20T01:29:08.507Z,9.77
2023-11-20T01:31:36.144Z,8.52
2023-11-20T01:34:03.973Z,7.53
2023-11-20T01:36:31.677Z,6.20
2023-11-20T01:38:59.265Z,7.22
2023-11-20T01:41:30.647Z,14.48
2023-11-20T01:43:58.253Z,12.98
2023-11-20T01:46:30.084Z,8.60
2023-11-20T01:49:00.239Z,7.15
2023-11-20T01:51:32.244Z,11.17
2023-11-20T01:54:00.663Z,8.75
2023-11-20T01:56:29.653Z,6.35
2023-11-20T01:59:02.425Z,5.60
2023-11-20T02:01:31.855Z,7.03
2023-11-20T02:04:02.028Z,10.23
2023-11-20T02:06:30.087Z,12.98
2023-11-20T02:08:58.166Z,11.63
2023-11-20T02:11:29.800Z,6.65
2023-11-20T02:13:59.379Z,12.48
2023-11-20T02:16:27.029Z,7.00
2023-11-20T02:18:54.787Z,7.10
2023-11-20T02:21:22.438Z,10.80
2023-11-20T02:23:50.129Z,12.00
2023-11-20T02:26:42.374Z,7.28
2023-11-20T02:29:30.933Z,12.30
2023-11-20T02:31:58.742Z,7.68
2023-11-20T02:34:26.451Z,11.95
2023-11-20T02:36:54.048Z,9.77
2023-11-20T02:39:21.693Z,10.52
2023-11-20T02:41:51.552Z,8.98
2023-11-20T02:44:19.243Z,9.13
2023-11-20T02:46:46.863Z,10.38
2023-11-20T02:49:14.607Z,7.68
2023-11-20T02:51:43.584Z,9.90
2023-11-20T02:54:11.325Z,8.20
2023-11-20T02:56:41.996Z,9.95
2023-11-20T02:59:09.563Z,8.35
2023-11-20T03:01:37.432Z,7.13
2023-11-20T03:04:05.828Z,12.57
2023-11-20T03:06:33.547Z,6.60
2023-11-20T03:09:01.137Z,9.38
2023-11-20T03:11:28.708Z,6.60
2023-11-20T03:13:56.294Z,5.18
2023-11-20T03:16:24.072Z,4.95
2023-11-20T03:18:51.726Z,11.68
2023-11-20T03:21:19.336Z,10.18
2023-11-20T03:23:46.901Z,5.32
2023-11-20T03:26:14.611Z,10.07
2023-11-20T03:28:42.184Z,8.27
2023-11-20T03:31:09.830Z,5.75
2023-11-20T03:33:37.517Z,6.18
2023-11-20T03:36:05.568Z,6.93
2023-11-20T03:38:33.145Z,12.13
2023-11-20T03:41:00.723Z,7.55
2023-11-20T03:43:29.440Z,7.80
2023-11-20T03:45:57.272Z,8.38
2023-11-20T03:48:24.944Z,6.60
2023-11-20T03:50:52.523Z,6.55
2023-11-20T03:53:20.865Z,4.80
2023-11-20T03:55:48.472Z,7.03
2023-11-20T03:58:16.082Z,4.95
2023-11-20T04:00:43.692Z,5.93
2023-11-20T04:03:11.306Z,13.35
2023-11-20T04:05:39.719Z,7.43
2023-11-20T04:08:09.096Z,5.32
2023-11-20T04:10:39.574Z,7.90
2023-11-20T04:13:08.960Z,8.15
2023-11-20T04:15:36.741Z,8.52
2023-11-20T04:18:04.383Z,5.95
2023-11-20T04:20:32.297Z,8.75
2023-11-20T04:23:00.238Z,9.50
2023-11-20T04:25:27.831Z,9.02
2023-11-20T04:27:55.592Z,8.40
2023-11-20T04:30:26.114Z,5.43
2023-11-20T04:32:53.737Z,7.53
2023-11-20T04:35:21.381Z,8.20
2023-11-20T04:37:48.981Z,6.93
2023-11-20T04:40:17.171Z,6.32
2023-11-20T04:42:45.427Z,9.23
2023-11-20T04:45:13.620Z,8.50
2023-11-20T04:47:41.910Z,8.60
2023-11-20T04:50:10.180Z,11.63
2023-11-20T04:52:38.103Z,7.88
2023-11-20T04:55:06.640Z,6.10
2023-11-20T04:57:34.976Z,12.27
2023-11-20T05:00:05.421Z,6.72
2023-11-20T05:02:33.062Z,7.15
2023-11-20T05:05:00.685Z,11.33
2023-11-20T05:07:28.352Z,7.60
2023-11-20T05:09:55.976Z,7.70
2023-11-20T05:12:23.579Z,10.73
2023-11-20T05:14:51.157Z,10.20
2023-11-20T05:17:21.334Z,6.25
2023-11-20T05:19:49.266Z,8.80
2023-11-20T05:22:18.432Z,9.00
2023-11-20T05:24:46.288Z,6.20
2023-11-20T05:27:13.932Z,11.55
2023-11-20T05:29:41.559Z,8.40
2023-11-20T05:32:09.324Z,7.75
2023-11-20T05:34:37.024Z,9.00
2023-11-20T05:37:04.827Z,9.27
2023-11-20T05:39:32.794Z,5.53
2023-11-20T05:42:00.338Z,11.90
2023-11-20T05:44:27.991Z,5.47
2023-11-20T05:46:55.697Z,4.78
2023-11-20T05:49:23.756Z,6.40
2023-11-20T05:51:52.779Z,8.73
2023-11-20T05:54:20.417Z,7.85
2023-11-20T05:56:48.313Z,8.00
2023-11-20T05:59:15.999Z,6.72
2023-11-20T06:01:44.128Z,7.35
2023-11-20T06:04:12.287Z,12.23
2023-11-20T06:06:40.418Z,9.27
2023-11-20T06:09:11.440Z,4.97
2023-11-20T06:11:39.202Z,4.70
2023-11-20T06:14:06.848Z,8.43
2023-11-20T06:16:34.605Z,9.65
2023-11-20T06:19:02.369Z,8.48
2023-11-20T06:21:30.030Z,4.68
2023-11-20T06:23:57.638Z,10.38
2023-11-20T06:26:27.114Z,5.90
2023-11-20T06:28:55.038Z,7.97
2023-11-20T06:31:22.650Z,6.10
2023-11-20T06:33:50.283Z,6.80
2023-11-20T06:36:18.398Z,10.02
2023-11-20T06:38:46.068Z,4.57
2023-11-20T06:41:18.451Z,6.13
2023-11-20T06:43:46.613Z,8.93
2023-11-20T06:46:22.430Z,8.88
2023-11-20T06:48:50.569Z,6.60
2023-11-20T06:51:18.234Z,9.93
2023-11-20T06:53:45.817Z,4.60
2023-11-20T06:56:22.876Z,6.07
2023-11-20T06:58:52.573Z,25.70
2023-11-20T07:01:20.357Z,4.57
2023-11-20T07:03:48.052Z,6.25
2023-11-20T07:06:16.787Z,5.75
2023-11-20T07:08:44.985Z,7.22
2023-11-20T07:11:12.575Z,5.80
2023-11-20T07:13:40.148Z,5.20
2023-11-20T07:16:09.053Z,5.17
2023-11-20T07:18:36.706Z,8.02
2023-11-20T07:21:04.544Z,6.38
2023-11-20T07:23:32.168Z,6.75
2023-11-20T07:25:59.791Z,11.00
2023-11-20T07:28:27.522Z,13.20
2023-11-20T07:30:55.170Z,9.32
2023-11-20T07:33:22.789Z,6.47
2023-11-20T07:35:52.179Z,8.40
2023-11-20T07:38:19.824Z,9.57
2023-11-20T07:40:47.483Z,8.65
2023-11-20T07:43:17.353Z,6.35
2023-11-20T07:45:46.711Z,5.68
2023-11-20T07:48:14.407Z,5.63
2023-11-20T07:50:42.090Z,6.03
2023-11-20T07:53:09.786Z,7.83
2023-11-20T07:55:37.363Z,9.60
2023-11-20T07:58:05.255Z,14.82
2023-11-20T08:00:33.199Z,8.63
2023-11-20T08:03:00.809Z,7.05
2023-11-20T08:05:29.531Z,8.25
2023-11-20T08:07:58.049Z,5.20
2023-11-20T08:10:25.717Z,12.77
2023-11-20T08:12:53.462Z,7.45
2023-11-20T08:15:21.048Z,7.70
2023-11-20T08:17:48.782Z,7.15
2023-11-20T08:20:19.323Z,9.00
2023-11-20T08:22:46.923Z,7.82
2023-11-20T08:25:14.999Z,12.52
2023-11-20T08:27:44.792Z,8.90
2023-11-20T08:30:12.941Z,5.40
2023-11-20T08:32:40.635Z,7.88
2023-11-20T08:35:10.353Z,6.53
2023-11-20T08:37:37.983Z,6.80
2023-11-20T08:40:09.944Z,5.60
2023-11-20T08:42:37.674Z,9.98
2023-11-20T08:45:06.201Z,7.00
2023-11-20T08:47:36.213Z,9.40
2023-11-20T08:50:04.697Z,6.75
2023-11-20T08:52:32.402Z,9.13
2023-11-20T08:55:00.008Z,4.35
2023-11-20T08:57:27.623Z,8.38
2023-11-20T08:59:55.322Z,4.40
2023-11-20T09:02:23.859Z,5.63
2023-11-20T09:04:51.695Z,5.47
2023-11-20T09:07:19.491Z,7.82
2023-11-20T09:09:47.196Z,4.75
2023-11-20T09:12:14.858Z,9.50
2023-11-20T09:14:43.676Z,9.48
2023-11-20T09:17:11.335Z,4.00
2023-11-20T09:19:38.954Z,8.68
2023-11-20T09:22:06.603Z,6.60
2023-11-20T09:24:34.235Z,9.02
2023-11-20T09:27:01.859Z,7.25
2023-11-20T09:29:29.438Z,11.18
2023-11-20T09:31:57.109Z,7.13
2023-11-20T09:34:24.911Z,3.85
2023-11-20T09:36:52.695Z,4.57
2023-11-20T09:39:20.959Z,4.60
2023-11-20T09:41:48.715Z,6.28
2023-11-20T09:44:19.077Z,4.25
2023-11-20T09:46:47.906Z,6.85
2023-11-20T09:49:24.062Z,3.08
2023-11-20T09:51:56.449Z,3.00
2023-11-20T09:54:27.425Z,6.30
2023-11-20T09:56:55.480Z,3.40
2023-11-20T09:59:23.373Z,8.35
2023-11-20T10:01:52.928Z,3.45
2023-11-20T10:04:22.417Z,3.08
2023-11-20T10:06:53.094Z,6.32
2023-11-20T10:09:23.166Z,3.80
2023-11-20T10:11:54.363Z,2.72
2023-11-20T10:14:21.971Z,4.55
2023-11-20T10:16:52.471Z,8.95
2023-11-20T10:19:20.375Z,6.20
2023-11-20T10:21:49.000Z,10.20
2023-11-20T10:24:20.240Z,5.43
2023-11-20T10:26:47.865Z,5.78
2023-11-20T10:29:17.117Z,4.18
2023-11-20T10:31:46.249Z,4.85
2023-11-20T10:34:15.231Z,5.35
2023-11-20T10:36:42.871Z,4.35
2023-11-20T10:39:13.283Z,3.85
2023-11-20T10:41:42.943Z,4.57
2023-11-20T10:44:10.804Z,5.10
2023-11-20T10:46:42.677Z,4.25
2023-11-20T10:49:13.990Z,2.47
2023-11-20T10:51:48.341Z,5.05
2023-11-20T10:54:18.568Z,7.75
2023-11-20T10:56:47.702Z,2.92
2023-11-20T10:59:18.192Z,3.15
2023-11-20T11:01:46.148Z,4.55
2023-11-20T11:04:15.270Z,3.65
2023-11-20T11:06:47.076Z,5.70
2023-11-20T11:09:19.247Z,4.30
2023-11-20T11:11:50.533Z,5.78
2023-11-20T11:14:18.148Z,3.37
2023-11-20T11:16:54.002Z,4.70
2023-11-20T11:19:29.095Z,8.15
2023-11-20T11:22:03.576Z,3.05
2023-11-20T11:24:37.201Z,5.45
2023-11-20T11:27:18.880Z,2.33
2023-11-20T11:29:57.732Z,2.40
2023-11-20T11:32:41.950Z,3.28
2023-11-20T11:38:22.321Z,7.32
2023-11-20T11:41:24.833Z,1.30
2023-11-20T11:44:17.377Z,0.98
2023-11-20T11:46:45.252Z,2.70
2023-11-20T11:49:24.187Z,2.75
2023-11-20T11:51:58.381Z,1.83
2023-11-20T11:54:27.949Z,1.20
2023-11-20T11:57:05.505Z,2.88
2023-11-20T11:59:38.949Z,4.05
2023-11-20T12:02:08.797Z,1.27
2023-11-20T12:04:57.378Z,1.27
2023-11-20T12:07:47.125Z,0.77
2023-11-20T12:10:15.233Z,3.72
2023-11-20T12:12:58.721Z,4.28
2023-11-20T12:15:38.823Z,10.85
2023-11-20T12:18:14.767Z,1.70
2023-11-20T12:21:09.867Z,2.42
2023-11-20T12:23:45.237Z,3.20
2023-11-20T12:26:14.917Z,2.63
2023-11-20T12:28:43.322Z,3.20
2023-11-20T12:31:13.639Z,5.77
2023-11-20T12:33:45.066Z,3.33
2023-11-20T12:36:13.764Z,1.95
2023-11-20T12:38:44.560Z,2.22
2023-11-20T12:41:12.546Z,4.25
2023-11-20T12:43:40.533Z,3.42
2023-11-20T12:46:09.453Z,4.25
2023-11-20T12:48:41.070Z,2.63
2023-11-20T12:51:09.291Z,3.10
2023-11-20T12:53:38.962Z,1.95
2023-11-20T12:56:08.880Z,4.75
2023-11-20T12:58:36.679Z,3.97
2023-11-20T13:01:05.907Z,1.30
2023-11-20T13:03:36.390Z,2.42
2023-11-20T13:06:07.347Z,2.60
2023-11-20T13:08:36.966Z,1.50
2023-11-20T13:11:05.104Z,4.07
2023-11-20T13:13:33.421Z,2.40
2023-11-20T13:16:01.605Z,2.25
2023-11-20T13:18:30.309Z,3.53
2023-11-20T13:20:58.939Z,4.72
2023-11-20T13:23:31.178Z,3.28
2023-11-20T13:26:10.171Z,2.38
2023-11-20T13:28:39.059Z,2.00
2023-11-20T13:31:09.527Z,2.15
2023-11-20T13:33:42.865Z,1.08
2023-11-20T13:36:11.973Z,1.17
2023-11-20T13:38:40.040Z,2.13
2023-11-20T13:41:08.792Z,1.98
2023-11-20T13:43:36.816Z,4.88
2023-11-20T13:46:07.594Z,4.72
2023-11-20T13:48:36.044Z,11.48
2023-11-20T13:51:06.207Z,9.18
2023-11-20T13:53:34.886Z,10.15
2023-11-20T13:56:02.563Z,11.73
2023-11-20T13:58:30.221Z,13.77
2023-11-20T14:01:00.807Z,5.32
2023-11-20T14:03:31.506Z,3.15
2023-11-20T14:06:01.347Z,2.45
2023-11-20T14:08:31.690Z,3.63
2023-11-20T14:11:00.295Z,2.90
2023-11-20T14:13:31.305Z,2.92
2023-11-20T14:16:00.122Z,2.08
2023-11-20T14:18:29.123Z,2.95
2023-11-20T14:20:58.273Z,6.05
2023-11-20T14:23:26.082Z,2.37
2023-11-20T14:28:24.439Z,3.10
2023-11-20T14:30:53.345Z,2.80
2023-11-20T14:33:21.002Z,4.07
2023-11-20T14:35:49.156Z,3.20
2023-11-20T14:38:16.802Z,3.40
2023-11-20T14:40:45.148Z,8.97
2023-11-20T14:43:13.458Z,3.05
2023-11-20T14:45:41.122Z,3.53
2023-11-20T14:48:08.732Z,2.63
2023-11-20T14:50:36.350Z,4.47
2023-11-20T14:53:05.055Z,2.88
2023-11-20T14:55:34.464Z,4.17
2023-11-20T14:58:02.404Z,1.50
2023-11-20T15:00:30.059Z,3.30
2023-11-20T15:03:00.549Z,3.60
2023-11-20T15:05:28.447Z,1.50
2023-11-20T15:07:56.041Z,2.60
2023-11-20T15:10:23.911Z,3.23
2023-11-20T15:12:52.700Z,2.97
2023-11-20T15:15:20.989Z,2.47
2023-11-20T15:17:48.916Z,4.67
2023-11-20T15:20:19.324Z,3.80
2023-11-20T15:22:47.508Z,8.07
2023-11-20T15:25:17.725Z,9.50
2023-11-20T15:27:46.089Z,6.87
2023-11-20T15:30:16.279Z,5.83
2023-11-20T15:32:46.350Z,5.30
2023-11-20T15:35:15.335Z,5.33
2023-11-20T15:37:43.658Z,5.90
2023-11-20T15:40:12.783Z,5.37
2023-11-20T15:42:42.939Z,5.07
2023-11-20T15:45:12.222Z,7.37
2023-11-20T15:47:40.135Z,3.77
2023-11-20T15:50:08.695Z,5.05
2023-11-20T15:52:36.380Z,2.67
2023-11-20T15:55:04.443Z,7.20
2023-11-20T15:57:32.165Z,3.23
2023-11-20T16:00:00.923Z,2.43
2023-11-20T16:02:32.230Z,3.45
2023-11-20T16:05:00.067Z,1.20
2023-11-20T16:07:27.727Z,3.47
2023-11-20T16:09:56.720Z,3.17
2023-11-20T16:12:24.405Z,2.17
2023-11-20T16:14:54.465Z,4.93
2023-11-20T16:17:22.085Z,2.60
2023-11-20T16:19:49.722Z,1.77
2023-11-20T16:22:17.654Z,5.80
2023-11-20T16:24:45.325Z,4.03
2023-11-20T16:27:12.952Z,4.23
2023-11-20T16:29:40.523Z,2.23
2023-11-20T16:32:08.152Z,2.80
2023-11-20T16:34:37.532Z,3.70
2023-11-20T16:37:08.547Z,2.47
2023-11-20T16:39:36.650Z,2.73
2023-11-20T16:42:05.092Z,3.00
2023-11-20T16:44:32.673Z,2.10
2023-11-20T16:47:00.517Z,2.20
2023-11-20T16:49:28.419Z,1.80
2023-11-20T16:51:58.135Z,2.27
2023-11-20T16:54:25.756Z,2.00
2023-11-20T16:56:53.772Z,2.83
2023-11-20T16:59:21.407Z,4.57
2023-11-20T17:01:49.122Z,3.43
2023-11-20T17:04:16.945Z,4.37
2023-11-20T17:06:45.889Z,4.63
2023-11-20T17:09:15.777Z,5.97
2023-11-20T17:11:43.578Z,9.57
2023-11-20T17:14:11.216Z,25.33
2023-11-20T17:16:38.851Z,78.87
2023-11-20T17:19:06.685Z,62.47
2023-11-20T17:21:34.397Z,18.70
2023-11-20T17:24:01.982Z,9.80
2023-11-20T17:26:30.353Z,10.07
2023-11-20T17:28:57.941Z,4.10
2023-11-20T17:31:28.628Z,7.90
2023-11-20T17:33:59.047Z,6.90
2023-11-20T17:36:27.990Z,12.97
2023-11-20T17:38:55.667Z,6.13
2023-11-20T17:41:23.279Z,8.50
2023-11-20T17:43:50.893Z,5.47
2023-11-20T17:46:19.025Z,23.17
2023-11-20T17:48:46.764Z,13.80
2023-11-20T17:51:14.326Z,16.13
2023-11-20T17:53:41.906Z,10.67
2023-11-20T17:56:10.923Z,10.63
2023-11-20T17:58:38.666Z,23.50
2023-11-20T18:01:06.767Z,73.00
2023-11-20T18:03:34.791Z,25.93
2023-11-20T18:06:02.683Z,8.77
2023-11-20T18:08:30.861Z,7.17
2023-11-20T18:10:59.915Z,38.73
2023-11-20T18:13:27.565Z,14.63
2023-11-20T18:15:55.489Z,30.10
2023-11-20T18:18:23.110Z,20.47
2023-11-20T18:20:50.988Z,33.10
2023-11-20T18:23:18.627Z,16.93
2023-11-20T18:25:46.397Z,29.10
2023-11-20T18:28:16.294Z,16.27
2023-11-20T18:30:43.880Z,9.83
2023-11-20T18:33:12.273Z,10.57
2023-11-20T18:35:39.911Z,8.97
2023-11-20T18:38:07.591Z,3.97
2023-11-20T18:40:35.200Z,7.50
2023-11-20T18:43:03.091Z,6.13
2023-11-20T18:45:30.681Z,3.57
2023-11-20T18:47:58.341Z,4.40
2023-11-20T18:50:26.001Z,4.10
2023-11-20T18:52:53.611Z,5.13
2023-11-20T18:55:22.047Z,5.13
2023-11-20T18:57:54.232Z,4.67
2023-11-20T19:00:23.979Z,3.10
2023-11-20T19:02:53.032Z,2.83
2023-11-20T19:05:20.832Z,3.67
2023-11-20T19:07:51.292Z,4.13
2023-11-20T19:10:18.984Z,2.93
2023-11-20T19:12:46.697Z,4.43
2023-11-20T19:15:14.506Z,6.20
2023-11-20T19:17:42.688Z,5.83
2023-11-20T19:20:15.925Z,8.53
2023-11-20T19:22:43.896Z,10.27
2023-11-20T19:25:15.403Z,6.40
2023-11-20T19:27:44.453Z,3.33
2023-11-20T19:30:17.370Z,3.33
2023-11-20T19:32:47.663Z,4.60
2023-11-20T19:35:17.237Z,10.60
2023-11-20T19:37:45.639Z,8.63
2023-11-20T19:40:14.717Z,22.17
2023-11-20T19:42:45.418Z,18.87
2023-11-20T19:45:14.315Z,17.67
2023-11-20T19:47:42.816Z,16.77
2023-11-20T19:50:10.857Z,21.37
2023-11-20T19:52:38.689Z,14.23
2023-11-20T19:55:07.622Z,7.97
2023-11-20T19:57:35.326Z,6.83
2023-11-20T20:00:06.768Z,5.83
2023-11-20T20:02:36.367Z,5.40
2023-11-20T20:05:04.386Z,5.17
2023-11-20T20:07:32.083Z,6.73
2023-11-20T20:10:00.216Z,4.70
2023-11-20T20:12:28.652Z,3.70
2023-11-20T20:14:56.261Z,4.70
2023-11-20T20:17:23.886Z,5.60
2023-11-20T20:19:51.804Z,4.03
2023-11-20T20:22:20.662Z,4.63
2023-11-20T20:24:48.395Z,2.57
2023-11-20T20:27:16.024Z,5.47
2023-11-20T20:29:44.010Z,10.23
2023-11-20T20:32:14.213Z,13.67
2023-11-20T20:34:43.710Z,4.30
2023-11-20T20:37:12.018Z,5.67
2023-11-20T20:39:41.091Z,6.87
2023-11-20T20:42:09.789Z,8.53
2023-11-20T20:44:44.791Z,6.17
2023-11-20T20:47:12.391Z,6.43
2023-11-20T20:49:40.112Z,7.40
2023-11-20T20:52:10.678Z,6.83
2023-11-20T20:54:40.959Z,4.90
2023-11-20T20:57:09.711Z,5.43
2023-11-20T20:59:37.296Z,6.07
2023-11-20T21:02:04.995Z,3.90
2023-11-20T21:04:32.694Z,4.03
2023-11-20T21:07:04.063Z,4.93
2023-11-20T21:09:31.827Z,4.83
2023-11-20T21:12:00.284Z,3.40
2023-11-20T21:14:28.407Z,10.13
2023-11-20T21:16:56.246Z,6.27
2023-11-20T21:19:23.967Z,5.37
2023-11-20T21:21:51.636Z,5.07
2023-11-20T21:24:19.339Z,7.63
2023-11-20T21:26:47.194Z,5.50
2023-11-20T21:29:16.027Z,4.83
2023-11-20T21:31:47.381Z,5.93
2023-11-20T21:34:18.267Z,4.30
2023-11-20T21:36:46.169Z,8.50
2023-11-20T21:39:19.365Z,4.67
2023-11-20T21:41:50.577Z,7.57
2023-11-20T21:44:19.132Z,6.67
2023-11-20T21:46:46.877Z,3.33
2023-11-20T21:49:14.623Z,3.10
2023-11-20T21:51:42.230Z,3.60
2023-11-20T21:54:10.330Z,7.80
2023-11-20T21:56:41.207Z,3.50
2023-11-20T21:59:09.065Z,4.97
2023-11-20T22:01:36.715Z,4.30
2023-11-20T22:04:05.055Z,5.60
2023-11-20T22:06:32.780Z,2.47
2023-11-20T22:09:00.402Z,3.47
2023-11-20T22:11:28.023Z,5.43
2023-11-20T22:13:55.713Z,3.50
2023-11-20T22:16:23.387Z,3.60
2023-11-20T22:18:52.987Z,3.03
2023-11-20T22:21:21.005Z,2.27
2023-11-20T22:23:48.593Z,5.27
2023-11-20T22:26:16.261Z,0.77
2023-11-20T22:28:43.909Z,1.97
2023-11-20T22:31:12.170Z,1.40
2023-11-20T22:33:39.875Z,1.10
2023-11-20T22:36:09.616Z,1.57
2023-11-20T22:38:37.243Z,1.23
2023-11-20T22:41:09.195Z,1.00
2023-11-20T22:43:37.588Z,0.80
2023-11-20T22:46:05.397Z,1.93
2023-11-20T22:48:33.351Z,0.93
2023-11-20T22:51:01.021Z,3.00
2023-11-20T22:53:29.069Z,2.70
2023-11-20T22:55:56.685Z,1.47
2023-11-20T22:58:24.912Z,2.30
2023-11-20T23:00:52.624Z,1.57
2023-11-20T23:03:20.750Z,1.43
2023-11-20T23:05:48.651Z,2.73
2023-11-20T23:08:16.314Z,5.83
2023-11-20T23:10:45.239Z,2.30
2023-11-20T23:13:14.274Z,2.03
2023-11-20T23:15:42.086Z,3.00
2023-11-20T23:18:09.861Z,1.57
2023-11-20T23:20:38.131Z,1.13
2023-11-20T23:23:05.813Z,1.93
2023-11-20T23:25:33.449Z,0.70
2023-11-20T23:28:01.800Z,0.73
2023-11-20T23:30:31.266Z,2.47
2023-11-20T23:32:59.088Z,1.43
2023-11-20T23:35:27.859Z,0.60
2023-11-20T23:37:55.455Z,0.93
2023-11-20T23:40:23.425Z,1.37
2023-11-20T23:42:51.339Z,1.27
2023-11-20T23:45:19.122Z,1.17
2023-11-20T23:47:48.351Z,2.60
2023-11-20T23:50:16.350Z,1.33
2023-11-20T23:52:44.531Z,0.80
2023-11-20T23:55:12.604Z,2.23
2023-11-20T23:57:40.221Z,1.00
